sensor_id;sensor_type;location;lat;lon;timestamp;P1;durP1;ratioP1;P2;durP2;ratioP2
48635;SDS011;34429;52.332;5.614;2023-02-28T00:00:25;9.27;;;4.00;;
48635;SDS011;34429;52.332;5.614;2023-02-28T00:02:54;9.75;;;3.65;;
48635;SDS011;34429;52.332;5.614;2023-02-28T00:05:23;6.93;;;3.40;;
48635;SDS011;34429;52.332;5.614;2023-02-28T00:07:59;5.95;;;2.92;;
48635;SDS011;34429;52.332;5.614;2023-02-28T00:10:30;7.28;;;3.55;;
48635;SDS011;34429;52.332;5.614;2023-02-28T00:13:00;4.65;;;3.10;;
48635;SDS011;34429;52.332;5.614;2023-02-28T00:15:31;7.97;;;3.58;;
48635;SDS011;34429;52.332;5.614;2023-02-28T00:20:29;5.32;;;2.78;;
48635;SDS011;34429;52.332;5.614;2023-02-28T00:22:57;10.17;;;3.20;;
48635;SDS011;34429;52.332;5.614;2023-02-28T00:25:26;5.47;;;2.65;;
48635;SDS011;34429;52.332;5.614;2023-02-28T00:27:57;5.57;;;2.60;;
48635;SDS011;34429;52.332;5.614;2023-02-28T00:30:25;5.45;;;2.80;;
48635;SDS011;34429;52.332;5.614;2023-02-28T00:32:53;8.05;;;3.03;;
48635;SDS011;34429;52.332;5.614;2023-02-28T00:35:22;8.87;;;3.00;;
48635;SDS011;34429;52.332;5.614;2023-02-28T00:37:51;6.88;;;2.75;;
48635;SDS011;34429;52.332;5.614;2023-02-28T00:40:20;5.90;;;2.88;;
48635;SDS011;34429;52.332;5.614;2023-02-28T00:42:49;7.13;;;3.08;;
48635;SDS011;34429;52.332;5.614;2023-02-28T00:45:20;4.95;;;2.42;;
48635;SDS011;34429;52.332;5.614;2023-02-28T00:47:48;5.20;;;2.70;;
48635;SDS011;34429;52.332;5.614;2023-02-28T00:50:17;7.22;;;2.92;;
48635;SDS011;34429;52.332;5.614;2023-02-28T00:52:46;5.75;;;2.63;;
48635;SDS011;34429;52.332;5.614;2023-02-28T00:55:15;4.18;;;2.50;;
48635;SDS011;34429;52.332;5.614;2023-02-28T00:57:43;5.65;;;2.53;;
48635;SDS011;34429;52.332;5.614;2023-02-28T01:00:12;4.27;;;2.90;;
48635;SDS011;34429;52.332;5.614;2023-02-28T01:02:44;6.57;;;3.05;;
48635;SDS011;34429;52.332;5.614;2023-02-28T01:05:12;7.50;;;3.20;;
48635;SDS011;34429;52.332;5.614;2023-02-28T01:07:41;6.47;;;2.92;;
48635;SDS011;34429;52.332;5.614;2023-02-28T01:10:10;9.95;;;3.17;;
48635;SDS011;34429;52.332;5.614;2023-02-28T01:12:38;4.15;;;2.63;;
48635;SDS011;34429;52.332;5.614;2023-02-28T01:15:09;7.50;;;2.57;;
48635;SDS011;34429;52.332;5.614;2023-02-28T01:17:38;5.63;;;3.15;;
48635;SDS011;34429;52.332;5.614;2023-02-28T01:20:10;5.65;;;2.75;;
48635;SDS011;34429;52.332;5.614;2023-02-28T01:22:39;4.68;;;2.40;;
48635;SDS011;34429;52.332;5.614;2023-02-28T01:25:08;4.47;;;3.17;;
48635;SDS011;34429;52.332;5.614;2023-02-28T01:27:36;8.43;;;2.92;;
48635;SDS011;34429;52.332;5.614;2023-02-28T01:30:05;6.10;;;2.60;;
48635;SDS011;34429;52.332;5.614;2023-02-28T01:32:35;5.50;;;2.80;;
48635;SDS011;34429;52.332;5.614;2023-02-28T01:35:05;5.20;;;2.97;;
48635;SDS011;34429;52.332;5.614;2023-02-28T01:37:36;6.20;;;3.03;;
48635;SDS011;34429;52.332;5.614;2023-02-28T01:40:05;7.10;;;2.83;;
48635;SDS011;34429;52.332;5.614;2023-02-28T01:42:34;4.60;;;2.70;;
48635;SDS011;34429;52.332;5.614;2023-02-28T01:45:06;4.95;;;2.20;;
48635;SDS011;34429;52.332;5.614;2023-02-28T01:47:47;8.40;;;2.47;;
48635;SDS011;34429;52.332;5.614;2023-02-28T01:50:18;7.20;;;2.80;;
48635;SDS011;34429;52.332;5.614;2023-02-28T01:52:53;3.55;;;2.75;;
48635;SDS011;34429;52.332;5.614;2023-02-28T01:55:24;7.45;;;2.88;;
48635;SDS011;34429;52.332;5.614;2023-02-28T01:57:56;9.23;;;3.00;;
48635;SDS011;34429;52.332;5.614;2023-02-28T02:00:28;10.07;;;3.05;;
48635;SDS011;34429;52.332;5.614;2023-02-28T02:02:58;5.38;;;2.58;;
48635;SDS011;34429;52.332;5.614;2023-02-28T02:05:29;9.35;;;3.05;;
48635;SDS011;34429;52.332;5.614;2023-02-28T02:08:04;8.13;;;3.55;;
48635;SDS011;34429;52.332;5.614;2023-02-28T02:10:34;5.90;;;2.53;;
48635;SDS011;34429;52.332;5.614;2023-02-28T02:13:14;6.22;;;2.58;;
48635;SDS011;34429;52.332;5.614;2023-02-28T02:15:56;9.48;;;3.08;;
48635;SDS011;34429;52.332;5.614;2023-02-28T02:18:33;5.22;;;2.88;;
48635;SDS011;34429;52.332;5.614;2023-02-28T02:27:17;3.92;;;2.60;;
48635;SDS011;34429;52.332;5.614;2023-02-28T02:30:07;8.40;;;3.20;;
48635;SDS011;34429;52.332;5.614;2023-02-28T02:33:02;4.60;;;2.95;;
48635;SDS011;34429;52.332;5.614;2023-02-28T02:35:43;10.02;;;3.33;;
48635;SDS011;34429;52.332;5.614;2023-02-28T02:38:24;9.07;;;2.67;;
48635;SDS011;34429;52.332;5.614;2023-02-28T02:43:32;5.82;;;2.60;;
48635;SDS011;34429;52.332;5.614;2023-02-28T02:46:06;5.68;;;2.78;;
48635;SDS011;34429;52.332;5.614;2023-02-28T02:48:38;6.25;;;2.47;;
48635;SDS011;34429;52.332;5.614;2023-02-28T02:51:14;6.10;;;3.05;;
48635;SDS011;34429;52.332;5.614;2023-02-28T02:53:46;8.48;;;3.33;;
48635;SDS011;34429;52.332;5.614;2023-02-28T02:56:18;6.50;;;3.10;;
48635;SDS011;34429;52.332;5.614;2023-02-28T02:58:49;8.02;;;3.10;;
48635;SDS011;34429;52.332;5.614;2023-02-28T03:01:22;5.13;;;3.30;;
48635;SDS011;34429;52.332;5.614;2023-02-28T03:03:55;4.45;;;2.80;;
48635;SDS011;34429;52.332;5.614;2023-02-28T03:06:28;7.07;;;3.20;;
48635;SDS011;34429;52.332;5.614;2023-02-28T03:08:56;5.75;;;3.08;;
48635;SDS011;34429;52.332;5.614;2023-02-28T03:11:25;4.00;;;2.38;;
48635;SDS011;34429;52.332;5.614;2023-02-28T03:14:04;6.72;;;3.25;;
48635;SDS011;34429;52.332;5.614;2023-02-28T03:16:52;6.35;;;3.28;;
48635;SDS011;34429;52.332;5.614;2023-02-28T03:19:38;4.85;;;2.95;;
48635;SDS011;34429;52.332;5.614;2023-02-28T03:22:23;6.47;;;3.22;;
48635;SDS011;34429;52.332;5.614;2023-02-28T03:27:48;9.05;;;3.63;;
48635;SDS011;34429;52.332;5.614;2023-02-28T03:30:27;5.95;;;3.78;;
48635;SDS011;34429;52.332;5.614;2023-02-28T03:33:02;8.65;;;4.20;;
48635;SDS011;34429;52.332;5.614;2023-02-28T03:35:36;8.82;;;3.67;;
48635;SDS011;34429;52.332;5.614;2023-02-28T03:38:17;7.30;;;3.92;;
48635;SDS011;34429;52.332;5.614;2023-02-28T03:40:53;9.98;;;3.60;;
48635;SDS011;34429;52.332;5.614;2023-02-28T03:43:26;6.03;;;3.83;;
48635;SDS011;34429;52.332;5.614;2023-02-28T03:45:59;9.30;;;4.60;;
48635;SDS011;34429;52.332;5.614;2023-02-28T03:48:35;9.18;;;4.57;;
48635;SDS011;34429;52.332;5.614;2023-02-28T03:51:09;8.68;;;5.13;;
48635;SDS011;34429;52.332;5.614;2023-02-28T03:53:42;8.77;;;4.80;;
48635;SDS011;34429;52.332;5.614;2023-02-28T03:56:17;7.57;;;4.55;;
48635;SDS011;34429;52.332;5.614;2023-02-28T03:58:47;8.52;;;4.30;;
48635;SDS011;34429;52.332;5.614;2023-02-28T04:01:20;12.18;;;4.85;;
48635;SDS011;34429;52.332;5.614;2023-02-28T04:03:55;9.75;;;4.47;;
48635;SDS011;34429;52.332;5.614;2023-02-28T04:06:23;8.60;;;4.72;;
48635;SDS011;34429;52.332;5.614;2023-02-28T04:08:55;11.20;;;5.70;;
48635;SDS011;34429;52.332;5.614;2023-02-28T04:11:26;10.07;;;4.95;;
48635;SDS011;34429;52.332;5.614;2023-02-28T04:14:00;10.57;;;5.03;;
48635;SDS011;34429;52.332;5.614;2023-02-28T04:16:29;8.25;;;4.88;;
48635;SDS011;34429;52.332;5.614;2023-02-28T04:18:58;9.27;;;4.97;;
48635;SDS011;34429;52.332;5.614;2023-02-28T04:21:30;8.43;;;4.43;;
48635;SDS011;34429;52.332;5.614;2023-02-28T04:26:30;8.25;;;4.63;;
48635;SDS011;34429;52.332;5.614;2023-02-28T04:28:59;8.90;;;5.15;;
48635;SDS011;34429;52.332;5.614;2023-02-28T04:31:29;7.05;;;4.45;;
48635;SDS011;34429;52.332;5.614;2023-02-28T04:33:57;7.28;;;4.28;;
48635;SDS011;34429;52.332;5.614;2023-02-28T04:36:26;5.03;;;3.57;;
48635;SDS011;34429;52.332;5.614;2023-02-28T04:38:55;6.03;;;3.75;;
48635;SDS011;34429;52.332;5.614;2023-02-28T04:41:26;5.82;;;3.80;;
48635;SDS011;34429;52.332;5.614;2023-02-28T04:43:55;8.55;;;3.78;;
48635;SDS011;34429;52.332;5.614;2023-02-28T04:46:23;7.35;;;3.88;;
48635;SDS011;34429;52.332;5.614;2023-02-28T04:48:52;6.72;;;3.55;;
48635;SDS011;34429;52.332;5.614;2023-02-28T04:51:21;9.82;;;3.78;;
48635;SDS011;34429;52.332;5.614;2023-02-28T04:53:50;7.83;;;3.90;;
48635;SDS011;34429;52.332;5.614;2023-02-28T04:56:19;6.38;;;3.50;;
48635;SDS011;34429;52.332;5.614;2023-02-28T04:58:50;6.72;;;3.03;;
48635;SDS011;34429;52.332;5.614;2023-02-28T05:01:20;5.90;;;2.85;;
48635;SDS011;34429;52.332;5.614;2023-02-28T05:03:51;5.45;;;3.38;;
48635;SDS011;34429;52.332;5.614;2023-02-28T05:06:22;8.02;;;4.35;;
48635;SDS011;34429;52.332;5.614;2023-02-28T05:08:51;5.63;;;3.10;;
48635;SDS011;34429;52.332;5.614;2023-02-28T05:11:22;5.05;;;2.80;;
48635;SDS011;34429;52.332;5.614;2023-02-28T05:13:56;7.10;;;3.45;;
48635;SDS011;34429;52.332;5.614;2023-02-28T05:16:25;6.03;;;3.35;;
48635;SDS011;34429;52.332;5.614;2023-02-28T05:18:53;5.82;;;3.20;;
48635;SDS011;34429;52.332;5.614;2023-02-28T05:21:26;7.10;;;3.57;;
48635;SDS011;34429;52.332;5.614;2023-02-28T05:23:57;6.00;;;3.53;;
48635;SDS011;34429;52.332;5.614;2023-02-28T05:26:27;6.35;;;3.38;;
48635;SDS011;34429;52.332;5.614;2023-02-28T05:28:59;5.13;;;3.10;;
48635;SDS011;34429;52.332;5.614;2023-02-28T05:31:27;5.78;;;3.30;;
48635;SDS011;34429;52.332;5.614;2023-02-28T05:33:55;6.13;;;3.40;;
48635;SDS011;34429;52.332;5.614;2023-02-28T05:36:24;5.20;;;3.43;;
48635;SDS011;34429;52.332;5.614;2023-02-28T05:38:53;6.93;;;3.25;;
48635;SDS011;34429;52.332;5.614;2023-02-28T05:41:21;5.47;;;3.10;;
48635;SDS011;34429;52.332;5.614;2023-02-28T05:46:21;6.93;;;3.60;;
48635;SDS011;34429;52.332;5.614;2023-02-28T05:48:50;4.43;;;3.50;;
48635;SDS011;34429;52.332;5.614;2023-02-28T05:51:18;4.93;;;3.40;;
48635;SDS011;34429;52.332;5.614;2023-02-28T05:53:47;7.10;;;4.00;;
48635;SDS011;34429;52.332;5.614;2023-02-28T05:56:15;6.78;;;4.03;;
48635;SDS011;34429;52.332;5.614;2023-02-28T05:58:44;6.30;;;3.80;;
48635;SDS011;34429;52.332;5.614;2023-02-28T06:01:23;5.80;;;3.67;;
48635;SDS011;34429;52.332;5.614;2023-02-28T06:03:59;7.18;;;3.72;;
48635;SDS011;34429;52.332;5.614;2023-02-28T06:06:29;5.22;;;3.70;;
48635;SDS011;34429;52.332;5.614;2023-02-28T06:08:59;4.75;;;3.75;;
48635;SDS011;34429;52.332;5.614;2023-02-28T06:13:57;6.90;;;4.18;;
48635;SDS011;34429;52.332;5.614;2023-02-28T06:16:31;7.63;;;4.22;;
48635;SDS011;34429;52.332;5.614;2023-02-28T06:19:02;7.30;;;4.22;;
48635;SDS011;34429;52.332;5.614;2023-02-28T06:21:38;10.00;;;4.60;;
48635;SDS011;34429;52.332;5.614;2023-02-28T06:24:07;10.52;;;4.88;;
48635;SDS011;34429;52.332;5.614;2023-02-28T06:26:36;11.95;;;5.55;;
48635;SDS011;34429;52.332;5.614;2023-02-28T06:29:04;16.10;;;5.90;;
48635;SDS011;34429;52.332;5.614;2023-02-28T06:31:35;16.40;;;5.47;;
48635;SDS011;34429;52.332;5.614;2023-02-28T06:34:04;12.57;;;5.95;;
48635;SDS011;34429;52.332;5.614;2023-02-28T06:36:33;14.20;;;5.30;;
48635;SDS011;34429;52.332;5.614;2023-02-28T06:39:01;16.67;;;5.40;;
48635;SDS011;34429;52.332;5.614;2023-02-28T06:41:30;17.23;;;5.25;;
48635;SDS011;34429;52.332;5.614;2023-02-28T06:44:03;11.38;;;5.70;;
48635;SDS011;34429;52.332;5.614;2023-02-28T06:46:35;10.50;;;5.35;;
48635;SDS011;34429;52.332;5.614;2023-02-28T06:49:04;12.00;;;5.07;;
48635;SDS011;34429;52.332;5.614;2023-02-28T06:51:34;9.55;;;5.85;;
48635;SDS011;34429;52.332;5.614;2023-02-28T06:54:02;14.27;;;6.63;;
48635;SDS011;34429;52.332;5.614;2023-02-28T06:56:34;16.27;;;5.90;;
48635;SDS011;34429;52.332;5.614;2023-02-28T06:59:03;9.03;;;5.10;;
48635;SDS011;34429;52.332;5.614;2023-02-28T07:01:31;8.13;;;5.22;;
48635;SDS011;34429;52.332;5.614;2023-02-28T07:04:04;13.63;;;5.78;;
48635;SDS011;34429;52.332;5.614;2023-02-28T07:06:33;12.88;;;5.75;;
48635;SDS011;34429;52.332;5.614;2023-02-28T07:09:02;14.32;;;6.13;;
48635;SDS011;34429;52.332;5.614;2023-02-28T07:11:31;15.95;;;6.10;;
48635;SDS011;34429;52.332;5.614;2023-02-28T07:13:59;14.30;;;6.75;;
48635;SDS011;34429;52.332;5.614;2023-02-28T07:16:30;17.05;;;6.50;;
48635;SDS011;34429;52.332;5.614;2023-02-28T07:19:01;11.70;;;6.07;;
48635;SDS011;34429;52.332;5.614;2023-02-28T07:21:30;9.93;;;5.03;;
48635;SDS011;34429;52.332;5.614;2023-02-28T07:26:27;12.35;;;5.90;;
48635;SDS011;34429;52.332;5.614;2023-02-28T07:28:55;11.55;;;5.50;;
48635;SDS011;34429;52.332;5.614;2023-02-28T07:31:24;9.25;;;5.65;;
48635;SDS011;34429;52.332;5.614;2023-02-28T07:33:53;9.73;;;5.30;;
48635;SDS011;34429;52.332;5.614;2023-02-28T07:36:24;8.20;;;5.43;;
48635;SDS011;34429;52.332;5.614;2023-02-28T07:38:52;14.75;;;6.55;;
48635;SDS011;34429;52.332;5.614;2023-02-28T07:41:21;9.20;;;5.40;;
48635;SDS011;34429;52.332;5.614;2023-02-28T07:43:53;10.45;;;5.15;;
48635;SDS011;34429;52.332;5.614;2023-02-28T07:46:22;7.82;;;4.75;;
48635;SDS011;34429;52.332;5.614;2023-02-28T07:48:51;6.93;;;4.68;;
48635;SDS011;34429;52.332;5.614;2023-02-28T07:51:27;8.52;;;4.80;;
48635;SDS011;34429;52.332;5.614;2023-02-28T07:53:55;13.27;;;5.00;;
48635;SDS011;34429;52.332;5.614;2023-02-28T07:56:24;13.50;;;5.75;;
48635;SDS011;34429;52.332;5.614;2023-02-28T07:58:53;11.27;;;6.00;;
48635;SDS011;34429;52.332;5.614;2023-02-28T08:01:29;13.35;;;5.93;;
48635;SDS011;34429;52.332;5.614;2023-02-28T08:03:57;9.90;;;4.88;;
48635;SDS011;34429;52.332;5.614;2023-02-28T08:06:28;11.03;;;5.73;;
48635;SDS011;34429;52.332;5.614;2023-02-28T08:08:56;10.40;;;6.07;;
48635;SDS011;34429;52.332;5.614;2023-02-28T08:11:25;7.88;;;5.55;;
48635;SDS011;34429;52.332;5.614;2023-02-28T08:13:54;10.57;;;5.38;;
48635;SDS011;34429;52.332;5.614;2023-02-28T08:16:22;8.32;;;5.15;;
48635;SDS011;34429;52.332;5.614;2023-02-28T08:18:51;7.55;;;4.65;;
48635;SDS011;34429;52.332;5.614;2023-02-28T08:21:20;8.10;;;5.80;;
48635;SDS011;34429;52.332;5.614;2023-02-28T08:23:52;9.80;;;5.40;;
48635;SDS011;34429;52.332;5.614;2023-02-28T08:26:22;8.32;;;5.68;;
48635;SDS011;34429;52.332;5.614;2023-02-28T08:28:50;8.10;;;5.35;;
48635;SDS011;34429;52.332;5.614;2023-02-28T08:31:19;7.10;;;5.28;;
48635;SDS011;34429;52.332;5.614;2023-02-28T08:33:48;6.85;;;5.03;;
48635;SDS011;34429;52.332;5.614;2023-02-28T08:36:18;9.65;;;5.35;;
48635;SDS011;34429;52.332;5.614;2023-02-28T08:38:47;7.35;;;4.95;;
48635;SDS011;34429;52.332;5.614;2023-02-28T08:41:18;7.85;;;5.20;;
48635;SDS011;34429;52.332;5.614;2023-02-28T08:43:46;7.28;;;4.43;;
48635;SDS011;34429;52.332;5.614;2023-02-28T08:46:21;8.75;;;4.13;;
48635;SDS011;34429;52.332;5.614;2023-02-28T08:48:51;5.88;;;4.28;;
48635;SDS011;34429;52.332;5.614;2023-02-28T08:51:21;11.55;;;5.43;;
48635;SDS011;34429;52.332;5.614;2023-02-28T08:53:51;4.90;;;4.10;;
48635;SDS011;34429;52.332;5.614;2023-02-28T08:56:23;5.20;;;3.53;;
48635;SDS011;34429;52.332;5.614;2023-02-28T08:58:51;6.85;;;3.92;;
48635;SDS011;34429;52.332;5.614;2023-02-28T09:01:22;5.97;;;3.45;;
48635;SDS011;34429;52.332;5.614;2023-02-28T09:03:52;4.43;;;3.33;;
48635;SDS011;34429;52.332;5.614;2023-02-28T09:06:22;5.93;;;3.70;;
48635;SDS011;34429;52.332;5.614;2023-02-28T09:08:53;6.53;;;3.47;;
48635;SDS011;34429;52.332;5.614;2023-02-28T09:11:28;4.75;;;3.45;;
48635;SDS011;34429;52.332;5.614;2023-02-28T09:13:57;4.85;;;3.45;;
48635;SDS011;34429;52.332;5.614;2023-02-28T09:16:28;5.95;;;3.08;;
48635;SDS011;34429;52.332;5.614;2023-02-28T09:19:01;5.03;;;3.58;;
48635;SDS011;34429;52.332;5.614;2023-02-28T09:21:30;6.10;;;3.30;;
48635;SDS011;34429;52.332;5.614;2023-02-28T09:23:59;4.80;;;3.20;;
48635;SDS011;34429;52.332;5.614;2023-02-28T09:26:30;6.05;;;3.20;;
48635;SDS011;34429;52.332;5.614;2023-02-28T09:28:59;5.63;;;3.10;;
48635;SDS011;34429;52.332;5.614;2023-02-28T09:31:28;4.15;;;2.95;;
48635;SDS011;34429;52.332;5.614;2023-02-28T09:33:57;6.37;;;2.80;;
48635;SDS011;34429;52.332;5.614;2023-02-28T09:36:26;5.70;;;2.50;;
48635;SDS011;34429;52.332;5.614;2023-02-28T09:38:56;7.22;;;2.63;;
48635;SDS011;34429;52.332;5.614;2023-02-28T09:41:25;3.75;;;2.65;;
48635;SDS011;34429;52.332;5.614;2023-02-28T09:44:00;5.25;;;2.80;;
48635;SDS011;34429;52.332;5.614;2023-02-28T09:46:34;3.28;;;2.42;;
48635;SDS011;34429;52.332;5.614;2023-02-28T09:49:08;3.53;;;2.53;;
48635;SDS011;34429;52.332;5.614;2023-02-28T09:51:44;4.78;;;2.75;;
48635;SDS011;34429;52.332;5.614;2023-02-28T09:54:18;3.25;;;2.35;;
48635;SDS011;34429;52.332;5.614;2023-02-28T09:56:49;3.20;;;2.20;;
48635;SDS011;34429;52.332;5.614;2023-02-28T09:59:28;3.60;;;2.67;;
48635;SDS011;34429;52.332;5.614;2023-02-28T10:02:10;4.45;;;2.60;;
48635;SDS011;34429;52.332;5.614;2023-02-28T10:04:50;4.35;;;2.40;;
48635;SDS011;34429;52.332;5.614;2023-02-28T10:07:29;3.83;;;2.13;;
48635;SDS011;34429;52.332;5.614;2023-02-28T10:10:14;5.53;;;2.40;;
48635;SDS011;34429;52.332;5.614;2023-02-28T10:12:48;2.55;;;1.92;;
48635;SDS011;34429;52.332;5.614;2023-02-28T10:15:27;2.50;;;1.80;;
48635;SDS011;34429;52.332;5.614;2023-02-28T10:17:59;3.55;;;1.70;;
48635;SDS011;34429;52.332;5.614;2023-02-28T10:20:32;2.60;;;1.70;;
48635;SDS011;34429;52.332;5.614;2023-02-28T10:23:04;2.83;;;1.73;;
48635;SDS011;34429;52.332;5.614;2023-02-28T10:25:37;3.58;;;1.67;;
48635;SDS011;34429;52.332;5.614;2023-02-28T10:28:10;2.80;;;1.63;;
48635;SDS011;34429;52.332;5.614;2023-02-28T10:30:42;3.67;;;1.58;;
48635;SDS011;34429;52.332;5.614;2023-02-28T10:33:17;2.80;;;1.23;;
48635;SDS011;34429;52.332;5.614;2023-02-28T10:35:48;1.90;;;1.13;;
48635;SDS011;34429;52.332;5.614;2023-02-28T10:38:19;1.50;;;1.10;;
48635;SDS011;34429;52.332;5.614;2023-02-28T10:40:49;2.15;;;1.35;;
48635;SDS011;34429;52.332;5.614;2023-02-28T10:46:04;3.05;;;1.35;;
48635;SDS011;34429;52.332;5.614;2023-02-28T10:48:40;1.92;;;1.48;;
48635;SDS011;34429;52.332;5.614;2023-02-28T10:51:13;1.70;;;1.13;;
48635;SDS011;34429;52.332;5.614;2023-02-28T10:53:47;2.53;;;1.63;;
48635;SDS011;34429;52.332;5.614;2023-02-28T10:56:17;3.72;;;1.48;;
48635;SDS011;34429;52.332;5.614;2023-02-28T10:58:49;2.70;;;1.77;;
48635;SDS011;34429;52.332;5.614;2023-02-28T11:01:23;2.17;;;1.58;;
48635;SDS011;34429;52.332;5.614;2023-02-28T11:03:53;2.65;;;1.67;;
48635;SDS011;34429;52.332;5.614;2023-02-28T11:06:23;1.60;;;1.10;;
48635;SDS011;34429;52.332;5.614;2023-02-28T11:08:54;3.35;;;1.40;;
48635;SDS011;34429;52.332;5.614;2023-02-28T11:11:25;2.28;;;1.40;;
48635;SDS011;34429;52.332;5.614;2023-02-28T11:13:57;3.28;;;1.20;;
48635;SDS011;34429;52.332;5.614;2023-02-28T11:16:35;3.42;;;1.60;;
48635;SDS011;34429;52.332;5.614;2023-02-28T11:19:06;2.47;;;1.50;;
48635;SDS011;34429;52.332;5.614;2023-02-28T11:21:48;2.10;;;1.45;;
48635;SDS011;34429;52.332;5.614;2023-02-28T11:24:22;3.28;;;2.25;;
48635;SDS011;34429;52.332;5.614;2023-02-28T11:26:52;3.33;;;1.60;;
48635;SDS011;34429;52.332;5.614;2023-02-28T11:29:21;3.73;;;1.60;;
48635;SDS011;34429;52.332;5.614;2023-02-28T11:35:00;2.65;;;1.55;;
48635;SDS011;34429;52.332;5.614;2023-02-28T11:37:31;4.47;;;1.33;;
48635;SDS011;34429;52.332;5.614;2023-02-28T11:40:01;2.08;;;1.45;;
48635;SDS011;34429;52.332;5.614;2023-02-28T11:42:35;2.40;;;1.40;;
48635;SDS011;34429;52.332;5.614;2023-02-28T11:45:19;3.30;;;1.50;;
48635;SDS011;34429;52.332;5.614;2023-02-28T11:48:00;3.83;;;1.50;;
48635;SDS011;34429;52.332;5.614;2023-02-28T11:50:38;2.88;;;1.50;;
48635;SDS011;34429;52.332;5.614;2023-02-28T11:53:16;2.30;;;1.40;;
48635;SDS011;34429;52.332;5.614;2023-02-28T11:55:52;2.05;;;1.30;;
48635;SDS011;34429;52.332;5.614;2023-02-28T11:58:30;2.45;;;1.58;;
48635;SDS011;34429;52.332;5.614;2023-02-28T12:01:15;1.65;;;1.35;;
48635;SDS011;34429;52.332;5.614;2023-02-28T12:03:59;2.30;;;1.40;;
48635;SDS011;34429;52.332;5.614;2023-02-28T12:06:40;3.05;;;1.60;;
48635;SDS011;34429;52.332;5.614;2023-02-28T12:09:26;3.50;;;1.75;;
48635;SDS011;34429;52.332;5.614;2023-02-28T12:12:06;1.77;;;1.30;;
48635;SDS011;34429;52.332;5.614;2023-02-28T12:17:50;4.07;;;1.48;;
48635;SDS011;34429;52.332;5.614;2023-02-28T12:20:30;2.22;;;1.40;;
48635;SDS011;34429;52.332;5.614;2023-02-28T12:23:10;2.40;;;1.80;;
48635;SDS011;34429;52.332;5.614;2023-02-28T12:25:54;2.33;;;1.52;;
48635;SDS011;34429;52.332;5.614;2023-02-28T12:28:29;2.50;;;1.48;;
48635;SDS011;34429;52.332;5.614;2023-02-28T12:31:03;3.20;;;1.60;;
48635;SDS011;34429;52.332;5.614;2023-02-28T12:33:36;1.70;;;1.40;;
48635;SDS011;34429;52.332;5.614;2023-02-28T12:36:13;3.78;;;1.50;;
48635;SDS011;34429;52.332;5.614;2023-02-28T12:38:47;4.68;;;1.50;;
48635;SDS011;34429;52.332;5.614;2023-02-28T12:41:22;4.57;;;1.55;;
48635;SDS011;34429;52.332;5.614;2023-02-28T12:43:58;1.98;;;1.50;;
48635;SDS011;34429;52.332;5.614;2023-02-28T12:46:37;2.88;;;1.52;;
48635;SDS011;34429;52.332;5.614;2023-02-28T12:49:10;2.20;;;1.60;;
48635;SDS011;34429;52.332;5.614;2023-02-28T12:51:46;1.80;;;1.48;;
48635;SDS011;34429;52.332;5.614;2023-02-28T12:54:16;3.70;;;1.67;;
48635;SDS011;34429;52.332;5.614;2023-02-28T12:56:54;2.90;;;1.55;;
48635;SDS011;34429;52.332;5.614;2023-02-28T12:59:31;2.53;;;1.35;;
48635;SDS011;34429;52.332;5.614;2023-02-28T13:02:22;3.03;;;1.50;;
48635;SDS011;34429;52.332;5.614;2023-02-28T13:11:25;3.45;;;1.60;;
48635;SDS011;34429;52.332;5.614;2023-02-28T13:13:57;3.22;;;1.60;;
48635;SDS011;34429;52.332;5.614;2023-02-28T13:16:26;4.80;;;1.67;;
48635;SDS011;34429;52.332;5.614;2023-02-28T13:19:09;2.95;;;1.70;;
48635;SDS011;34429;52.332;5.614;2023-02-28T13:21:42;3.13;;;1.80;;
48635;SDS011;34429;52.332;5.614;2023-02-28T13:24:36;2.60;;;1.60;;
48635;SDS011;34429;52.332;5.614;2023-02-28T13:33:20;2.43;;;1.97;;
48635;SDS011;34429;52.332;5.614;2023-02-28T13:36:00;3.90;;;2.33;;
48635;SDS011;34429;52.332;5.614;2023-02-28T13:38:37;2.75;;;1.73;;
48635;SDS011;34429;52.332;5.614;2023-02-28T13:44:10;2.08;;;1.45;;
48635;SDS011;34429;52.332;5.614;2023-02-28T13:49:37;2.33;;;1.47;;
48635;SDS011;34429;52.332;5.614;2023-02-28T13:52:07;3.20;;;2.08;;
48635;SDS011;34429;52.332;5.614;2023-02-28T13:54:48;3.63;;;2.22;;
48635;SDS011;34429;52.332;5.614;2023-02-28T13:57:27;4.95;;;1.75;;
48635;SDS011;34429;52.332;5.614;2023-02-28T14:00:13;2.17;;;1.60;;
48635;SDS011;34429;52.332;5.614;2023-02-28T14:02:54;3.17;;;1.70;;
48635;SDS011;34429;52.332;5.614;2023-02-28T14:05:38;3.23;;;2.00;;
48635;SDS011;34429;52.332;5.614;2023-02-28T14:08:08;2.22;;;1.60;;
48635;SDS011;34429;52.332;5.614;2023-02-28T14:10:44;2.55;;;1.95;;
48635;SDS011;34429;52.332;5.614;2023-02-28T14:16:15;3.05;;;1.65;;
48635;SDS011;34429;52.332;5.614;2023-02-28T14:18:49;2.67;;;1.50;;
48635;SDS011;34429;52.332;5.614;2023-02-28T14:21:20;3.05;;;1.73;;
48635;SDS011;34429;52.332;5.614;2023-02-28T14:23:58;2.83;;;1.90;;
48635;SDS011;34429;52.332;5.614;2023-02-28T14:32:43;3.38;;;1.77;;
48635;SDS011;34429;52.332;5.614;2023-02-28T14:35:20;2.70;;;1.98;;
48635;SDS011;34429;52.332;5.614;2023-02-28T14:38:04;2.97;;;1.90;;
48635;SDS011;34429;52.332;5.614;2023-02-28T14:40:34;4.03;;;1.77;;
48635;SDS011;34429;52.332;5.614;2023-02-28T14:43:04;2.97;;;1.73;;
48635;SDS011;34429;52.332;5.614;2023-02-28T14:45:35;3.40;;;1.80;;
48635;SDS011;34429;52.332;5.614;2023-02-28T14:48:08;4.65;;;1.88;;
48635;SDS011;34429;52.332;5.614;2023-02-28T14:50:37;4.72;;;2.65;;
48635;SDS011;34429;52.332;5.614;2023-02-28T14:53:09;3.80;;;2.22;;
48635;SDS011;34429;52.332;5.614;2023-02-28T14:55:46;3.97;;;2.35;;
48635;SDS011;34429;52.332;5.614;2023-02-28T14:58:21;3.75;;;2.42;;
48635;SDS011;34429;52.332;5.614;2023-02-28T15:00:53;3.13;;;2.20;;
48635;SDS011;34429;52.332;5.614;2023-02-28T15:03:31;4.57;;;2.20;;
48635;SDS011;34429;52.332;5.614;2023-02-28T15:06:04;3.00;;;2.20;;
48635;SDS011;34429;52.332;5.614;2023-02-28T15:08:34;3.03;;;2.30;;
48635;SDS011;34429;52.332;5.614;2023-02-28T15:11:03;2.78;;;2.15;;
48635;SDS011;34429;52.332;5.614;2023-02-28T15:13:36;4.10;;;2.35;;
48635;SDS011;34429;52.332;5.614;2023-02-28T15:16:08;3.63;;;2.25;;
48635;SDS011;34429;52.332;5.614;2023-02-28T15:18:44;3.10;;;2.30;;
48635;SDS011;34429;52.332;5.614;2023-02-28T15:21:18;4.10;;;2.10;;
48635;SDS011;34429;52.332;5.614;2023-02-28T15:23:49;3.15;;;2.13;;
48635;SDS011;34429;52.332;5.614;2023-02-28T15:26:21;3.13;;;2.20;;
48635;SDS011;34429;52.332;5.614;2023-02-28T15:28:54;4.35;;;2.05;;
48635;SDS011;34429;52.332;5.614;2023-02-28T15:31:27;3.15;;;1.88;;
48635;SDS011;34429;52.332;5.614;2023-02-28T15:34:05;2.60;;;2.10;;
48635;SDS011;34429;52.332;5.614;2023-02-28T15:36:34;3.05;;;2.10;;
48635;SDS011;34429;52.332;5.614;2023-02-28T15:39:16;3.55;;;1.95;;
48635;SDS011;34429;52.332;5.614;2023-02-28T15:41:46;4.30;;;2.95;;
48635;SDS011;34429;52.332;5.614;2023-02-28T15:44:23;2.65;;;2.45;;
48635;SDS011;34429;52.332;5.614;2023-02-28T15:46:56;3.65;;;2.28;;
48635;SDS011;34429;52.332;5.614;2023-02-28T15:49:31;3.92;;;2.15;;
48635;SDS011;34429;52.332;5.614;2023-02-28T15:52:09;3.67;;;2.40;;
48635;SDS011;34429;52.332;5.614;2023-02-28T15:54:43;3.40;;;2.25;;
48635;SDS011;34429;52.332;5.614;2023-02-28T15:57:14;3.67;;;2.17;;
48635;SDS011;34429;52.332;5.614;2023-02-28T15:59:49;5.13;;;2.00;;
48635;SDS011;34429;52.332;5.614;2023-02-28T16:02:21;5.28;;;2.20;;
48635;SDS011;34429;52.332;5.614;2023-02-28T16:07:53;2.95;;;2.60;;
48635;SDS011;34429;52.332;5.614;2023-02-28T16:10:22;3.90;;;2.33;;
48635;SDS011;34429;52.332;5.614;2023-02-28T16:12:52;4.15;;;2.47;;
48635;SDS011;34429;52.332;5.614;2023-02-28T16:15:22;4.45;;;2.95;;
48635;SDS011;34429;52.332;5.614;2023-02-28T16:17:54;2.55;;;2.17;;
48635;SDS011;34429;52.332;5.614;2023-02-28T16:20:27;4.40;;;2.47;;